North Richland Hills, Texas
Current Conditions -  °F | °C
As of 4:53 PM on Thursday 18 Dec 2014 (Local Time) from KFTW Reporting Station
Overcast Overcast  
Wind Chill: 50°   Ceiling: 1300
Heat Index: 50°   Visibility: 8mi
Dew Point: 44°   Wind: 7mph
Humidity: 80%   Direction: 20°NNE
Pressure: 30.11"   Gusts: NA
Location:  32.84°N, 97.23°W
Report Text: KFTW 182253Z 02006KT 8SM OVC013 10/07 A3011 RMK AO2 SLP196 T01000067
Loading
Personal Weather Stations






























Interactive Weather Map New forecast layout! Learn more

10-Day Weather Forecast

Advertisements
Track Severe Weather on mobile